createdAt,value
2023-08-15T00:00:42.527Z,100932.00
2023-08-15T00:03:10.151Z,100938.00
2023-08-15T00:05:38.672Z,100926.00
2023-08-15T00:08:06.283Z,100922.00
2023-08-15T00:10:33.768Z,100917.00
2023-08-15T00:13:01.170Z,100908.00
2023-08-15T00:15:28.444Z,100907.00
2023-08-15T00:17:57.675Z,100914.00
2023-08-15T00:20:25.036Z,100911.00
2023-08-15T00:22:52.647Z,100907.00
2023-08-15T00:25:20.239Z,100913.00
2023-08-15T00:27:47.575Z,100914.00
2023-08-15T00:30:15.924Z,100918.00
2023-08-15T00:34:04.945Z,100910.00
2023-08-15T00:36:51.028Z,100911.00
2023-08-15T00:39:19.730Z,100923.00
2023-08-15T00:41:46.986Z,100909.00
2023-08-15T00:44:14.444Z,100904.00
2023-08-15T00:46:42.092Z,100917.00
2023-08-15T00:49:09.725Z,100911.00
2023-08-15T00:51:38.232Z,100915.00
2023-08-15T00:54:08.093Z,100919.00
2023-08-15T00:56:35.834Z,100923.00
2023-08-15T00:59:04.378Z,100926.00
2023-08-15T01:01:33.272Z,100916.00
2023-08-15T01:04:01.872Z,100916.00
2023-08-15T01:06:29.066Z,100911.00
2023-08-15T01:08:56.998Z,100913.00
2023-08-15T01:11:29.545Z,100916.00
2023-08-15T01:14:05.893Z,100906.00
2023-08-15T01:16:45.132Z,100885.00
2023-08-15T01:19:39.535Z,100874.00
2023-08-15T01:22:18.292Z,100876.00
2023-08-15T01:24:47.081Z,100873.00
2023-08-15T01:27:14.665Z,100869.00
2023-08-15T01:29:41.904Z,100880.00
2023-08-15T01:32:31.884Z,100897.00
2023-08-15T01:35:22.193Z,100905.00
2023-08-15T01:37:59.182Z,100908.00
2023-08-15T01:40:31.081Z,100915.00
2023-08-15T01:43:01.776Z,100927.00
2023-08-15T01:45:30.651Z,100921.00
2023-08-15T01:47:58.437Z,100920.00
2023-08-15T01:50:25.896Z,100910.00
2023-08-15T01:52:54.136Z,100912.00
2023-08-15T01:55:21.418Z,100916.00
2023-08-15T01:57:49.034Z,100915.00
2023-08-15T02:00:16.861Z,100913.00
2023-08-15T02:02:48.124Z,100905.00
2023-08-15T02:05:15.874Z,100903.00
2023-08-15T02:07:43.150Z,100917.00
2023-08-15T02:10:10.819Z,100920.00
2023-08-15T02:12:38.275Z,100939.00
2023-08-15T02:15:06.475Z,100939.00
2023-08-15T02:17:33.770Z,100940.00
2023-08-15T02:20:01.174Z,100930.00
2023-08-15T02:22:28.588Z,100936.00
2023-08-15T02:24:55.977Z,100947.00
2023-08-15T02:27:23.248Z,100951.00
2023-08-15T02:29:52.347Z,100967.00
2023-08-15T02:32:20.391Z,100974.00
2023-08-15T02:34:47.642Z,100980.00
2023-08-15T02:37:16.999Z,100974.00
2023-08-15T02:39:45.072Z,100977.00
2023-08-15T02:42:12.313Z,100985.00
2023-08-15T02:44:39.995Z,100979.00
2023-08-15T02:47:07.743Z,100993.00
2023-08-15T02:49:35.400Z,100997.00
2023-08-15T02:52:02.699Z,100995.00
2023-08-15T02:54:30.036Z,100987.00
2023-08-15T02:56:57.331Z,100972.00
2023-08-15T02:59:25.081Z,100991.00
2023-08-15T03:01:52.527Z,100975.00
2023-08-15T03:04:19.787Z,100986.00
2023-08-15T03:06:47.836Z,100978.00
2023-08-15T03:09:18.610Z,100994.00
2023-08-15T03:11:46.106Z,100990.00
2023-08-15T03:14:13.688Z,100996.00
2023-08-15T03:16:40.987Z,100962.00
2023-08-15T03:19:08.718Z,100969.00
2023-08-15T03:21:36.110Z,100974.00
2023-08-15T03:24:03.879Z,100978.00
2023-08-15T03:26:31.296Z,100968.00
2023-08-15T03:28:59.658Z,100971.00
2023-08-15T03:31:27.161Z,100964.00
2023-08-15T03:33:54.684Z,100961.00
2023-08-15T03:36:21.989Z,100969.00
2023-08-15T03:38:49.461Z,100964.00
2023-08-15T03:41:17.051Z,100956.00
2023-08-15T03:43:44.454Z,100946.00
2023-08-15T03:46:11.976Z,100939.00
2023-08-15T03:48:39.624Z,100946.00
2023-08-15T03:51:07.913Z,100955.00
2023-08-15T03:53:35.565Z,100960.00
2023-08-15T03:56:02.813Z,100965.00
2023-08-15T03:58:30.150Z,100971.00
2023-08-15T04:00:57.639Z,100976.00
2023-08-15T04:03:25.458Z,100980.00
2023-08-15T04:05:52.697Z,100991.00
2023-08-15T04:08:20.056Z,100994.00
2023-08-15T04:10:48.632Z,100998.00
2023-08-15T04:13:16.376Z,100997.00
2023-08-15T04:15:44.020Z,100993.00
2023-08-15T04:18:11.558Z,100988.00
2023-08-15T04:20:40.866Z,100992.00
2023-08-15T04:23:09.375Z,100999.00
2023-08-15T04:25:39.405Z,100999.00
2023-08-15T04:28:07.369Z,101009.00
2023-08-15T04:30:35.683Z,101021.00
2023-08-15T04:33:03.155Z,101023.00
2023-08-15T04:35:31.022Z,101040.00
2023-08-15T04:37:58.347Z,101036.00
2023-08-15T04:40:38.257Z,101050.00
2023-08-15T04:43:05.939Z,101051.00
2023-08-15T04:45:33.402Z,101042.00
2023-08-15T04:48:01.217Z,101053.00
2023-08-15T04:50:29.066Z,101057.00
2023-08-15T04:52:56.398Z,101064.00
2023-08-15T04:55:23.693Z,101058.00
2023-08-15T04:57:50.983Z,101065.00
2023-08-15T05:00:20.641Z,101071.00
2023-08-15T05:02:48.787Z,101064.00
2023-08-15T05:05:17.220Z,101073.00
2023-08-15T05:07:44.795Z,101075.00
2023-08-15T05:10:12.209Z,101078.00
2023-08-15T05:12:40.067Z,101099.00
2023-08-15T05:15:09.497Z,101091.00
2023-08-15T05:17:37.387Z,101094.00
2023-08-15T05:20:06.049Z,101092.00
2023-08-15T05:22:33.922Z,101103.00
2023-08-15T05:25:01.204Z,101113.00
2023-08-15T05:27:28.762Z,101119.00
2023-08-15T05:29:56.231Z,101105.00
2023-08-15T05:32:23.543Z,101114.00
2023-08-15T05:34:51.246Z,101117.00
2023-08-15T05:37:18.839Z,101124.00
2023-08-15T05:39:46.594Z,101123.00
2023-08-15T05:42:18.906Z,101125.00
2023-08-15T05:44:47.605Z,101121.00
2023-08-15T05:47:15.269Z,101121.00
2023-08-15T05:49:44.364Z,101128.00
2023-08-15T05:52:14.122Z,101134.00
2023-08-15T05:54:41.352Z,101133.00
2023-08-15T05:57:08.783Z,101129.00
2023-08-15T05:59:36.404Z,101134.00
2023-08-15T06:02:03.900Z,101135.00
2023-08-15T06:04:31.228Z,101143.00
2023-08-15T06:06:58.959Z,101134.00
2023-08-15T06:09:26.659Z,101138.00
2023-08-15T06:11:53.872Z,101137.00
2023-08-15T06:14:21.561Z,101141.00
2023-08-15T06:16:50.001Z,101140.00
2023-08-15T06:19:18.780Z,101135.00
2023-08-15T06:21:46.222Z,101150.00
2023-08-15T06:24:14.564Z,101152.00
2023-08-15T06:26:41.856Z,101161.00
2023-08-15T06:29:09.656Z,101162.00
2023-08-15T06:31:37.528Z,101162.00
2023-08-15T06:34:05.681Z,101164.00
2023-08-15T06:36:33.892Z,101157.00
2023-08-15T06:39:01.708Z,101163.00
2023-08-15T06:41:29.015Z,101156.00
2023-08-15T06:43:56.580Z,101168.00
2023-08-15T06:46:24.130Z,101167.00
2023-08-15T06:48:51.465Z,101159.00
2023-08-15T06:51:18.796Z,101162.00
2023-08-15T06:53:46.524Z,101178.00
2023-08-15T06:56:14.083Z,101174.00
2023-08-15T06:58:41.317Z,101174.00
2023-08-15T07:01:08.809Z,101177.00
2023-08-15T07:03:36.466Z,101176.00
2023-08-15T07:06:05.482Z,101170.00
2023-08-15T07:08:33.398Z,101173.00
2023-08-15T07:11:02.344Z,101174.00
2023-08-15T07:13:31.368Z,101170.00
2023-08-15T07:15:59.241Z,101172.00
2023-08-15T07:18:26.782Z,101168.00
2023-08-15T07:20:54.514Z,101164.00
2023-08-15T07:23:21.936Z,101168.00
2023-08-15T07:25:49.453Z,101161.00
2023-08-15T07:28:18.321Z,101161.00
2023-08-15T07:30:49.940Z,101164.00
2023-08-15T07:33:17.756Z,101170.00
2023-08-15T07:35:45.369Z,101174.00
2023-08-15T07:38:13.862Z,101175.00
2023-08-15T07:40:41.714Z,101183.00
2023-08-15T07:43:09.050Z,101189.00
2023-08-15T07:45:36.857Z,101186.00
2023-08-15T07:48:05.524Z,101182.00
2023-08-15T07:50:35.780Z,101188.00
2023-08-15T07:53:02.952Z,101184.00
2023-08-15T07:55:34.132Z,101183.00
2023-08-15T07:58:02.155Z,101190.00
2023-08-15T08:00:29.576Z,101197.00
2023-08-15T08:03:01.099Z,101200.00
2023-08-15T08:05:32.732Z,101202.00
2023-08-15T08:08:01.117Z,101205.00
2023-08-15T08:10:28.793Z,101207.00
2023-08-15T08:12:56.291Z,101208.00
2023-08-15T08:15:24.709Z,101198.00
2023-08-15T08:17:51.973Z,101217.00
2023-08-15T08:20:20.263Z,101215.00
2023-08-15T08:22:48.429Z,101204.00
2023-08-15T08:25:22.849Z,101219.00
2023-08-15T08:27:51.398Z,101213.00
2023-08-15T08:30:26.484Z,101216.00
2023-08-15T08:32:53.895Z,101220.00
2023-08-15T08:35:21.218Z,101225.00
2023-08-15T08:37:50.560Z,101218.00
2023-08-15T08:40:18.797Z,101226.00
2023-08-15T08:42:47.356Z,101229.00
2023-08-15T08:45:19.813Z,101232.00
2023-08-15T08:47:47.930Z,101226.00
2023-08-15T08:50:18.276Z,101214.00
2023-08-15T08:52:51.926Z,101220.00
2023-08-15T08:55:22.386Z,101226.00
2023-08-15T08:57:54.226Z,101210.00
2023-08-15T09:00:30.791Z,101211.00
2023-08-15T09:02:59.697Z,101212.00
2023-08-15T09:05:28.742Z,101214.00
2023-08-15T09:07:57.469Z,101214.00
2023-08-15T09:10:24.708Z,101215.00
2023-08-15T09:12:51.996Z,101213.00
2023-08-15T09:15:19.664Z,101216.00
2023-08-15T09:17:47.237Z,101218.00
2023-08-15T09:20:16.744Z,101219.00
2023-08-15T09:22:47.647Z,101231.00
2023-08-15T09:25:19.236Z,101234.00
2023-08-15T09:27:50.787Z,101242.00
2023-08-15T09:30:19.071Z,101240.00
2023-08-15T09:32:47.862Z,101241.00
2023-08-15T09:35:18.668Z,101251.00
2023-08-15T09:37:50.208Z,101249.00
2023-08-15T09:40:27.625Z,101251.00
2023-08-15T09:42:55.710Z,101247.00
2023-08-15T09:45:23.656Z,101245.00
2023-08-15T09:47:51.547Z,101251.00
2023-08-15T09:50:19.010Z,101257.00
2023-08-15T09:52:52.421Z,101250.00
2023-08-15T09:55:20.444Z,101248.00
2023-08-15T09:57:48.289Z,101246.00
2023-08-15T10:00:17.922Z,101249.00
2023-08-15T10:03:02.468Z,101248.00
2023-08-15T10:05:34.873Z,101252.00
2023-08-15T10:08:03.205Z,101240.00
2023-08-15T10:10:36.240Z,101259.00
2023-08-15T10:13:05.258Z,101253.00
2023-08-15T10:15:35.891Z,101250.00
2023-08-15T10:18:04.328Z,101255.00
2023-08-15T10:20:37.756Z,101263.00
2023-08-15T10:23:09.396Z,101254.00
2023-08-15T10:25:40.631Z,101252.00
2023-08-15T10:28:13.616Z,101266.00
2023-08-15T10:30:50.522Z,101280.00
2023-08-15T10:33:23.279Z,101272.00
2023-08-15T10:35:57.872Z,101277.00
2023-08-15T10:38:32.279Z,101286.00
2023-08-15T10:41:29.016Z,101286.00
2023-08-15T10:43:57.157Z,101295.00
2023-08-15T10:46:30.384Z,101292.00
2023-08-15T10:49:08.176Z,101283.00
2023-08-15T10:51:38.994Z,101293.00
2023-08-15T10:54:12.552Z,101300.00
2023-08-15T10:56:42.683Z,101284.00
2023-08-15T10:59:16.677Z,101291.00
2023-08-15T11:01:47.429Z,101288.00
2023-08-15T11:04:18.061Z,101291.00
2023-08-15T11:06:54.164Z,101292.00
2023-08-15T11:09:32.782Z,101302.00
2023-08-15T11:12:09.246Z,101294.00
2023-08-15T11:14:38.654Z,101295.00
2023-08-15T11:17:08.295Z,101293.00
2023-08-15T11:19:36.084Z,101295.00
2023-08-15T11:22:03.400Z,101293.00
2023-08-15T11:24:34.370Z,101301.00
2023-08-15T11:27:02.883Z,101303.00
2023-08-15T11:29:30.405Z,101302.00
2023-08-15T11:32:00.796Z,101302.00
2023-08-15T11:34:30.526Z,101312.00
2023-08-15T11:36:58.097Z,101312.00
2023-08-15T11:39:25.378Z,101317.00
2023-08-15T11:47:09.232Z,101320.00
2023-08-15T11:49:46.349Z,101322.00
2023-08-15T11:52:14.148Z,101318.00
2023-08-15T11:54:47.539Z,101319.00
2023-08-15T11:57:14.743Z,101322.00
2023-08-15T11:59:42.480Z,101318.00
2023-08-15T12:02:12.694Z,101306.00
2023-08-15T12:04:40.066Z,101300.00
2023-08-15T12:07:10.806Z,101289.00
2023-08-15T12:09:38.626Z,101300.00
2023-08-15T12:12:06.383Z,101300.00
2023-08-15T12:14:49.426Z,101302.00
2023-08-15T12:17:21.254Z,101309.00
2023-08-15T12:19:48.612Z,101310.00
2023-08-15T12:22:16.325Z,101324.00
2023-08-15T12:24:43.605Z,101319.00
2023-08-15T12:27:10.858Z,101318.00
2023-08-15T12:30:11.671Z,101330.00
2023-08-15T12:32:28.290Z,101328.00
2023-08-15T12:34:55.445Z,101335.00
2023-08-15T12:37:24.034Z,101339.00
2023-08-15T12:39:51.389Z,101331.00
2023-08-15T12:42:20.735Z,101332.00
2023-08-15T12:44:48.339Z,101325.00
2023-08-15T12:47:15.722Z,101326.00
2023-08-15T12:49:43.246Z,101322.00
2023-08-15T12:52:10.831Z,101319.00
2023-08-15T12:54:39.813Z,101321.00
2023-08-15T12:57:07.219Z,101313.00
2023-08-15T12:59:35.061Z,101305.00
2023-08-15T13:02:02.650Z,101306.00
2023-08-15T13:04:29.879Z,101308.00
2023-08-15T13:06:57.294Z,101313.00
2023-08-15T13:09:24.526Z,101303.00
2023-08-15T13:11:52.117Z,101306.00
2023-08-15T13:14:22.685Z,101306.00
2023-08-15T13:18:14.553Z,101308.00
2023-08-15T13:20:42.469Z,101301.00
2023-08-15T13:23:09.772Z,101301.00
2023-08-15T13:25:39.784Z,101303.00
2023-08-15T13:28:07.242Z,101295.00
2023-08-15T13:38:54.165Z,101293.00
2023-08-15T13:41:21.714Z,101296.00
2023-08-15T13:43:49.980Z,101293.00
2023-08-15T13:46:17.365Z,101284.00
2023-08-15T13:48:47.861Z,101290.00
2023-08-15T13:51:22.183Z,101293.00
2023-08-15T13:53:50.293Z,101298.00
2023-08-15T13:56:18.659Z,101305.00
2023-08-15T13:58:46.251Z,101306.00
2023-08-15T14:01:13.537Z,101305.00
2023-08-15T14:03:42.992Z,101311.00
2023-08-15T14:06:10.710Z,101311.00
2023-08-15T14:08:56.791Z,101306.00
2023-08-15T14:11:24.237Z,101295.00
2023-08-15T14:13:51.670Z,101304.00
2023-08-15T14:16:19.378Z,101306.00
2023-08-15T14:18:46.576Z,101296.00
2023-08-15T14:21:17.869Z,101303.00
2023-08-15T14:23:45.658Z,101298.00
2023-08-15T14:26:13.062Z,101297.00
2023-08-15T14:28:40.330Z,101294.00
2023-08-15T14:31:09.099Z,101293.00
2023-08-15T14:33:36.751Z,101298.00
2023-08-15T14:36:05.244Z,101292.00
2023-08-15T14:38:32.636Z,101303.00
2023-08-15T14:41:00.148Z,101300.00
2023-08-15T14:43:27.457Z,101304.00
2023-08-15T14:45:54.759Z,101301.00
2023-08-15T14:48:24.373Z,101294.00
2023-08-15T14:50:52.442Z,101295.00
2023-08-15T14:53:19.991Z,101289.00
2023-08-15T14:55:47.406Z,101284.00
2023-08-15T14:58:14.742Z,101291.00
2023-08-15T15:00:42.722Z,101291.00
2023-08-15T15:03:10.293Z,101287.00
2023-08-15T15:05:37.587Z,101287.00
2023-08-15T15:08:05.538Z,101284.00
2023-08-15T15:10:36.556Z,101294.00
2023-08-15T15:13:04.533Z,101300.00
2023-08-15T15:15:51.210Z,101294.00
2023-08-15T15:18:22.190Z,101302.00
2023-08-15T15:20:50.664Z,101299.00
2023-08-15T15:23:18.162Z,101303.00
2023-08-15T15:25:50.089Z,101304.00
2023-08-15T15:28:17.429Z,101310.00
2023-08-15T15:30:45.036Z,101312.00
2023-08-15T15:33:12.143Z,101306.00
2023-08-15T15:35:40.018Z,101300.00
2023-08-15T15:38:07.259Z,101304.00
2023-08-15T15:40:37.173Z,101306.00
2023-08-15T15:43:04.530Z,101304.00
2023-08-15T15:45:31.834Z,101294.00
2023-08-15T15:47:59.441Z,101315.00
2023-08-15T15:50:26.707Z,101313.00
2023-08-15T15:52:53.988Z,101308.00
2023-08-15T15:55:22.660Z,101309.00
2023-08-15T15:57:51.758Z,101308.00
2023-08-15T16:00:21.088Z,101310.00
2023-08-15T16:02:48.824Z,101314.00
2023-08-15T16:05:16.298Z,101306.00
2023-08-15T16:07:46.528Z,101319.00
2023-08-15T16:10:14.144Z,101311.00
2023-08-15T16:12:41.511Z,101318.00
2023-08-15T16:15:09.682Z,101315.00
2023-08-15T16:17:37.099Z,101305.00
2023-08-15T16:20:04.888Z,101311.00
2023-08-15T16:22:32.287Z,101310.00
2023-08-15T16:24:59.908Z,101310.00
2023-08-15T16:27:27.466Z,101307.00
2023-08-15T16:29:59.976Z,101303.00
2023-08-15T16:32:34.584Z,101305.00
2023-08-15T16:35:02.204Z,101305.00
2023-08-15T16:37:29.859Z,101305.00
2023-08-15T16:39:57.110Z,101309.00
2023-08-15T16:42:24.590Z,101316.00
2023-08-15T16:44:52.074Z,101309.00
2023-08-15T16:47:19.543Z,101317.00
2023-08-15T16:49:49.015Z,101320.00
2023-08-15T16:52:16.525Z,101321.00
2023-08-15T16:54:43.894Z,101326.00
2023-08-15T16:57:11.236Z,101328.00
2023-08-15T16:59:40.386Z,101330.00
2023-08-15T17:02:09.922Z,101323.00
2023-08-15T17:04:37.997Z,101330.00
2023-08-15T17:07:05.795Z,101326.00
2023-08-15T17:09:33.891Z,101332.00
2023-08-15T17:12:01.055Z,101330.00
2023-08-15T17:14:28.332Z,101343.00
2023-08-15T17:16:55.621Z,101346.00
2023-08-15T17:19:24.544Z,101348.00
2023-08-15T17:21:57.662Z,101352.00
2023-08-15T17:24:31.093Z,101363.00
2023-08-15T17:27:06.052Z,101370.00
2023-08-15T17:29:33.648Z,101371.00
2023-08-15T17:32:08.178Z,101360.00
2023-08-15T17:34:36.572Z,101373.00
2023-08-15T17:37:05.487Z,101369.00
2023-08-15T17:39:33.248Z,101381.00
2023-08-15T17:42:01.010Z,101390.00
2023-08-15T17:44:28.419Z,101400.00
2023-08-15T17:46:55.815Z,101391.00
2023-08-15T17:49:23.238Z,101391.00
2023-08-15T17:51:50.659Z,101389.00
2023-08-15T17:54:18.008Z,101385.00
2023-08-15T17:56:45.840Z,101395.00
2023-08-15T17:59:13.559Z,101394.00
2023-08-15T18:01:42.843Z,101401.00
2023-08-15T18:04:14.055Z,101402.00
2023-08-15T18:06:41.411Z,101401.00
2023-08-15T18:09:10.689Z,101404.00
2023-08-15T18:11:38.237Z,101402.00
2023-08-15T18:14:07.637Z,101408.00
2023-08-15T18:16:37.554Z,101411.00
2023-08-15T18:19:05.252Z,101419.00
2023-08-15T18:21:32.693Z,101426.00
2023-08-15T18:24:00.573Z,101417.00
2023-08-15T18:26:28.349Z,101430.00
2023-08-15T18:28:55.760Z,101425.00
2023-08-15T18:31:23.069Z,101424.00
2023-08-15T18:33:50.592Z,101437.00
2023-08-15T18:36:17.990Z,101442.00
2023-08-15T18:38:45.200Z,101439.00
2023-08-15T18:41:13.302Z,101438.00
2023-08-15T18:43:43.310Z,101444.00
2023-08-15T18:46:10.841Z,101453.00
2023-08-15T18:48:38.338Z,101456.00
2023-08-15T18:51:05.730Z,101465.00
2023-08-15T18:53:33.290Z,101466.00
2023-08-15T18:56:01.235Z,101464.00
2023-08-15T18:58:28.695Z,101472.00
2023-08-15T19:00:55.958Z,101480.00
2023-08-15T19:03:24.267Z,101471.00
2023-08-15T19:05:52.242Z,101476.00
2023-08-15T19:08:22.107Z,101488.00
2023-08-15T19:10:49.606Z,101489.00
2023-08-15T19:13:23.016Z,101497.00
2023-08-15T19:15:51.141Z,101494.00
2023-08-15T19:18:19.811Z,101508.00
2023-08-15T19:20:47.407Z,101506.00
2023-08-15T19:23:15.141Z,101520.00
2023-08-15T19:25:42.615Z,101523.00
2023-08-15T19:28:10.500Z,101522.00
2023-08-15T19:30:44.576Z,101524.00
2023-08-15T19:33:12.529Z,101525.00
2023-08-15T19:35:40.372Z,101518.00
2023-08-15T19:38:08.358Z,101515.00
2023-08-15T19:40:35.831Z,101527.00
2023-08-15T19:43:03.600Z,101533.00
2023-08-15T19:45:31.283Z,101538.00
2023-08-15T19:47:58.961Z,101534.00
2023-08-15T19:50:30.298Z,101531.00
2023-08-15T19:52:58.298Z,101545.00
2023-08-15T19:55:27.547Z,101543.00
2023-08-15T19:57:57.721Z,101534.00
2023-08-15T20:00:25.715Z,101528.00
2023-08-15T20:02:53.607Z,101545.00
2023-08-15T20:05:21.554Z,101545.00
2023-08-15T20:07:48.982Z,101547.00
2023-08-15T20:10:16.780Z,101546.00
2023-08-15T20:12:45.440Z,101550.00
2023-08-15T20:15:15.954Z,101562.00
2023-08-15T20:17:43.799Z,101556.00
2023-08-15T20:20:12.021Z,101551.00
2023-08-15T20:22:39.808Z,101548.00
2023-08-15T20:25:45.816Z,101554.00
2023-08-15T20:28:16.955Z,101548.00
2023-08-15T20:30:46.743Z,101549.00
2023-08-15T20:33:15.313Z,101558.00
2023-08-15T20:35:43.749Z,101561.00
2023-08-15T20:38:11.535Z,101555.00
2023-08-15T20:40:39.828Z,101553.00
2023-08-15T20:43:07.490Z,101557.00
2023-08-15T20:45:35.909Z,101549.00
2023-08-15T20:48:25.231Z,101551.00
2023-08-15T20:50:53.604Z,101557.00
2023-08-15T20:53:25.634Z,101557.00
2023-08-15T20:55:55.768Z,101564.00
2023-08-15T20:58:23.867Z,101558.00
2023-08-15T21:00:53.235Z,101559.00
2023-08-15T21:03:21.590Z,101563.00
2023-08-15T21:05:49.508Z,101567.00
2023-08-15T21:08:17.976Z,101566.00
2023-08-15T21:11:05.332Z,101571.00
2023-08-15T21:13:33.408Z,101584.00
2023-08-15T21:16:01.956Z,101583.00
2023-08-15T21:18:49.411Z,101593.00
2023-08-15T21:21:16.935Z,101586.00
2023-08-15T21:23:45.982Z,101574.00
2023-08-15T21:26:13.955Z,101587.00
2023-08-15T21:28:41.772Z,101588.00
2023-08-15T21:31:09.220Z,101588.00
2023-08-15T21:33:38.624Z,101586.00
2023-08-15T21:36:06.589Z,101587.00
2023-08-15T21:38:34.166Z,101592.00
2023-08-15T21:41:04.622Z,101596.00
2023-08-15T21:43:32.212Z,101591.00
2023-08-15T21:45:59.661Z,101592.00
2023-08-15T21:48:27.161Z,101580.00
2023-08-15T21:50:54.706Z,101574.00
2023-08-15T21:53:22.266Z,101590.00
2023-08-15T21:55:49.828Z,101594.00
2023-08-15T21:58:17.905Z,101587.00
2023-08-15T22:00:48.332Z,101592.00
2023-08-15T22:07:28.438Z,101587.00
2023-08-15T22:09:58.600Z,101590.00
2023-08-15T22:12:32.466Z,101589.00
2023-08-15T22:15:00.554Z,101586.00
2023-08-15T22:17:43.060Z,101598.00
2023-08-15T22:20:14.751Z,101596.00
2023-08-15T22:23:05.636Z,101596.00
2023-08-15T22:25:33.473Z,101601.00
2023-08-15T22:28:01.328Z,101603.00
2023-08-15T22:30:29.451Z,101604.00
2023-08-15T22:32:56.856Z,101612.00
2023-08-15T22:35:43.715Z,101619.00
2023-08-15T22:38:11.937Z,101619.00
2023-08-15T22:40:39.795Z,101616.00
2023-08-15T22:43:08.133Z,101620.00
2023-08-15T22:45:43.034Z,101615.00
2023-08-15T22:48:11.075Z,101623.00
2023-08-15T22:50:38.527Z,101621.00
2023-08-15T22:53:06.216Z,101613.00
2023-08-15T22:55:33.477Z,101612.00
2023-08-15T22:58:08.460Z,101612.00
2023-08-15T23:00:38.245Z,101619.00
2023-08-15T23:03:06.160Z,101612.00
2023-08-15T23:05:38.189Z,101613.00
2023-08-15T23:08:06.720Z,101615.00
2023-08-15T23:10:35.291Z,101615.00
2023-08-15T23:13:03.219Z,101609.00
2023-08-15T23:15:30.963Z,101612.00
2023-08-15T23:17:58.755Z,101602.00
2023-08-15T23:20:36.122Z,101605.00
2023-08-15T23:23:04.245Z,101608.00
2023-08-15T23:25:32.140Z,101602.00
2023-08-15T23:28:02.851Z,101595.00
2023-08-15T23:30:31.413Z,101608.00
2023-08-15T23:32:59.260Z,101602.00
2023-08-15T23:35:26.825Z,101618.00
2023-08-15T23:37:55.031Z,101615.00
2023-08-15T23:40:31.331Z,101605.00
2023-08-15T23:42:59.723Z,101616.00
2023-08-15T23:45:27.594Z,101598.00
2023-08-15T23:47:56.058Z,101604.00
2023-08-15T23:50:29.995Z,101606.00
2023-08-15T23:52:58.488Z,101597.00
2023-08-15T23:55:26.485Z,101608.00
2023-08-15T23:57:57.321Z,101606.00
